Cloncurry, Queensland

12:12 PM AEST on November 25, 2014 (GMT +1000)
Cloncurry | Change Station
CLOSE
Current Station
Airport
Location: Cloncurry Airport, QLD,
Elevation: 614 ft
Nearby Weather Stations

Elev 614 ft 20.67 °S, 140.50 °E | Updated 12 minutes ago

Clear
Clear
97 °F
Feels Like 96 °F
N
6
Wind Variable Wind from North
Gusts mph

Today
High -- | Low -- °F
--% Chance of Precip.
Yesterday
High -- | Low -- °F
Precip. -- in
5:48 AM 7:01 PM
Waxing Crescent, 8% visible
Pressure 29.80 in
Visibility -9999.0 miles
Clouds
Heat Index 96 °F
Dew Point 59 °F
Humidity 28%
Rainfall 0.00 in
Snow Depth Not available.
UV Not available.
Pollen Not available.
Air Quality Not available.
Flu Activity Not available.
METAR YCCY 250200Z AUTO 36005KT 320V040 //// // ////// 36/15 Q1009

More Conditions Fewer Conditions

Pressure 29.80 in
Visibility -9999.0 miles
Clouds
Heat Index 96 °F
Dew Point 59 °F
Humidity 28%
Rainfall 0.00 in
Snow Depth Not available.
UV Not available.
Pollen Not available.
Air Quality Not available.
Flu Activity Not available.
METAR YCCY 250200Z AUTO 36005KT 320V040 //// // ////// 36/15 Q1009

More Conditions Fewer Conditions

10-Day Weather Forecast

Almanac

Astronomy

Nov. 25, 2014 Rise Set
Actual Time
Civil Twilight
Nautical Twilight
Astronomical Twilight
Moon
Length of Visible Light
Length of Day
Tomorrow will be .
, % of the Moon is Illuminated

Today's Extremes

Country Highs Country Lows

Community

WunderPhotos

Upload Photos

1,773,460 photos uploaded!

WunderBlogs® & News

Nearby

Air Quality

  Air Quality AQ Index Pollutant
Not available.

Snow Depth

Station Depth Elevation

Earthquake Activity

City Distance Mag. Time & Date
Minimum magnitude displayed is 2.5.

Coastal Water Temperatures

Place Temperature

Nearby Weather Stations